sensor_id;sensor_type;location;lat;lon;timestamp;P1;durP1;ratioP1;P2;durP2;ratioP2
37047;SDS011;23227;48.780;9.210;2022-12-10T00:01:09;34.67;;;16.60;;
37047;SDS011;23227;48.780;9.210;2022-12-10T00:04:14;34.33;;;15.90;;
37047;SDS011;23227;48.780;9.210;2022-12-10T00:07:17;34.70;;;15.43;;
37047;SDS011;23227;48.780;9.210;2022-12-10T00:10:20;36.97;;;16.23;;
37047;SDS011;23227;48.780;9.210;2022-12-10T00:13:23;31.20;;;15.32;;
37047;SDS011;23227;48.780;9.210;2022-12-10T00:16:27;31.90;;;15.70;;
37047;SDS011;23227;48.780;9.210;2022-12-10T00:19:33;30.37;;;15.23;;
37047;SDS011;23227;48.780;9.210;2022-12-10T00:22:35;33.53;;;15.13;;
37047;SDS011;23227;48.780;9.210;2022-12-10T00:25:38;33.73;;;14.67;;
37047;SDS011;23227;48.780;9.210;2022-12-10T00:28:41;31.70;;;14.83;;
37047;SDS011;23227;48.780;9.210;2022-12-10T00:31:44;30.98;;;14.95;;
37047;SDS011;23227;48.780;9.210;2022-12-10T00:34:48;33.57;;;15.47;;
37047;SDS011;23227;48.780;9.210;2022-12-10T00:37:51;31.07;;;14.50;;
37047;SDS011;23227;48.780;9.210;2022-12-10T00:40:54;30.60;;;14.97;;
37047;SDS011;23227;48.780;9.210;2022-12-10T00:43:56;30.07;;;14.07;;
37047;SDS011;23227;48.780;9.210;2022-12-10T00:46:59;29.57;;;13.37;;
37047;SDS011;23227;48.780;9.210;2022-12-10T00:50:04;30.25;;;12.90;;
37047;SDS011;23227;48.780;9.210;2022-12-10T00:53:07;34.37;;;15.20;;
37047;SDS011;23227;48.780;9.210;2022-12-10T00:56:10;30.37;;;13.73;;
37047;SDS011;23227;48.780;9.210;2022-12-10T00:59:14;30.37;;;15.10;;
37047;SDS011;23227;48.780;9.210;2022-12-10T01:02:17;34.97;;;15.50;;
37047;SDS011;23227;48.780;9.210;2022-12-10T01:05:23;33.97;;;14.00;;
37047;SDS011;23227;48.780;9.210;2022-12-10T01:08:26;30.30;;;13.80;;
37047;SDS011;23227;48.780;9.210;2022-12-10T01:11:30;30.40;;;13.60;;
37047;SDS011;23227;48.780;9.210;2022-12-10T01:14:34;32.33;;;15.70;;
37047;SDS011;23227;48.780;9.210;2022-12-10T01:17:37;32.80;;;15.02;;
37047;SDS011;23227;48.780;9.210;2022-12-10T01:20:41;29.20;;;12.85;;
37047;SDS011;23227;48.780;9.210;2022-12-10T01:23:45;29.40;;;13.77;;
37047;SDS011;23227;48.780;9.210;2022-12-10T01:26:51;30.70;;;14.63;;
37047;SDS011;23227;48.780;9.210;2022-12-10T01:29:56;31.93;;;14.73;;
37047;SDS011;23227;48.780;9.210;2022-12-10T01:32:58;29.00;;;13.43;;
37047;SDS011;23227;48.780;9.210;2022-12-10T01:36:03;32.20;;;14.03;;
37047;SDS011;23227;48.780;9.210;2022-12-10T01:39:08;27.97;;;14.23;;
37047;SDS011;23227;48.780;9.210;2022-12-10T01:42:14;28.73;;;13.63;;
37047;SDS011;23227;48.780;9.210;2022-12-10T01:45:16;33.13;;;14.00;;
37047;SDS011;23227;48.780;9.210;2022-12-10T01:48:23;28.63;;;12.93;;
37047;SDS011;23227;48.780;9.210;2022-12-10T01:51:29;27.17;;;12.50;;
37047;SDS011;23227;48.780;9.210;2022-12-10T01:54:34;27.77;;;13.07;;
37047;SDS011;23227;48.780;9.210;2022-12-10T01:57:37;31.57;;;13.80;;
37047;SDS011;23227;48.780;9.210;2022-12-10T02:00:43;34.33;;;13.63;;
37047;SDS011;23227;48.780;9.210;2022-12-10T02:03:52;29.43;;;13.90;;
37047;SDS011;23227;48.780;9.210;2022-12-10T02:07:03;28.80;;;13.20;;
37047;SDS011;23227;48.780;9.210;2022-12-10T02:10:24;29.67;;;13.73;;
37047;SDS011;23227;48.780;9.210;2022-12-10T02:13:34;29.80;;;13.30;;
37047;SDS011;23227;48.780;9.210;2022-12-10T02:16:43;29.53;;;13.70;;
37047;SDS011;23227;48.780;9.210;2022-12-10T02:19:52;30.47;;;14.40;;
37047;SDS011;23227;48.780;9.210;2022-12-10T02:23:05;28.57;;;13.90;;
37047;SDS011;23227;48.780;9.210;2022-12-10T02:26:11;33.57;;;13.60;;
37047;SDS011;23227;48.780;9.210;2022-12-10T02:29:17;31.40;;;14.80;;
37047;SDS011;23227;48.780;9.210;2022-12-10T02:32:26;29.77;;;14.23;;
37047;SDS011;23227;48.780;9.210;2022-12-10T02:35:33;30.33;;;13.67;;
37047;SDS011;23227;48.780;9.210;2022-12-10T02:38:39;32.23;;;13.73;;
37047;SDS011;23227;48.780;9.210;2022-12-10T02:41:45;32.13;;;13.67;;
37047;SDS011;23227;48.780;9.210;2022-12-10T02:44:51;30.07;;;13.50;;
37047;SDS011;23227;48.780;9.210;2022-12-10T02:47:55;28.27;;;14.10;;
37047;SDS011;23227;48.780;9.210;2022-12-10T02:50:59;28.13;;;13.93;;
37047;SDS011;23227;48.780;9.210;2022-12-10T02:54:02;32.40;;;13.70;;
37047;SDS011;23227;48.780;9.210;2022-12-10T02:57:09;28.27;;;13.97;;
37047;SDS011;23227;48.780;9.210;2022-12-10T03:00:19;27.60;;;12.90;;
37047;SDS011;23227;48.780;9.210;2022-12-10T03:03:25;26.93;;;13.83;;
37047;SDS011;23227;48.780;9.210;2022-12-10T03:06:35;30.73;;;13.30;;
37047;SDS011;23227;48.780;9.210;2022-12-10T03:09:42;29.83;;;12.63;;
37047;SDS011;23227;48.780;9.210;2022-12-10T03:12:49;29.87;;;13.47;;
37047;SDS011;23227;48.780;9.210;2022-12-10T03:15:56;28.87;;;13.70;;
37047;SDS011;23227;48.780;9.210;2022-12-10T03:19:02;32.10;;;13.47;;
37047;SDS011;23227;48.780;9.210;2022-12-10T03:22:08;28.87;;;13.33;;
37047;SDS011;23227;48.780;9.210;2022-12-10T03:28:15;26.90;;;13.25;;
37047;SDS011;23227;48.780;9.210;2022-12-10T03:31:20;28.87;;;12.43;;
37047;SDS011;23227;48.780;9.210;2022-12-10T03:34:23;29.13;;;12.50;;
37047;SDS011;23227;48.780;9.210;2022-12-10T03:37:26;27.43;;;13.40;;
37047;SDS011;23227;48.780;9.210;2022-12-10T03:40:30;24.33;;;12.60;;
37047;SDS011;23227;48.780;9.210;2022-12-10T03:43:33;29.75;;;13.38;;
37047;SDS011;23227;48.780;9.210;2022-12-10T03:46:37;32.03;;;13.85;;
37047;SDS011;23227;48.780;9.210;2022-12-10T03:49:41;29.60;;;14.37;;
37047;SDS011;23227;48.780;9.210;2022-12-10T03:52:45;28.92;;;13.23;;
37047;SDS011;23227;48.780;9.210;2022-12-10T03:55:48;30.70;;;13.85;;
37047;SDS011;23227;48.780;9.210;2022-12-10T03:58:51;26.75;;;13.73;;
37047;SDS011;23227;48.780;9.210;2022-12-10T04:01:55;28.90;;;13.40;;
37047;SDS011;23227;48.780;9.210;2022-12-10T04:04:57;28.60;;;12.40;;
37047;SDS011;23227;48.780;9.210;2022-12-10T04:08:00;27.77;;;13.77;;
37047;SDS011;23227;48.780;9.210;2022-12-10T04:11:03;24.40;;;12.83;;
37047;SDS011;23227;48.780;9.210;2022-12-10T04:14:07;31.25;;;12.70;;
37047;SDS011;23227;48.780;9.210;2022-12-10T04:17:30;24.87;;;11.83;;
37047;SDS011;23227;48.780;9.210;2022-12-10T04:20:33;25.90;;;12.33;;
37047;SDS011;23227;48.780;9.210;2022-12-10T04:23:53;25.43;;;11.47;;
37047;SDS011;23227;48.780;9.210;2022-12-10T04:27:16;27.83;;;12.47;;
37047;SDS011;23227;48.780;9.210;2022-12-10T04:30:20;29.03;;;13.27;;
37047;SDS011;23227;48.780;9.210;2022-12-10T04:33:24;26.30;;;11.87;;
37047;SDS011;23227;48.780;9.210;2022-12-10T21:37:15;27.37;;;10.60;;
37047;SDS011;23227;48.780;9.210;2022-12-10T21:40:18;40.67;;;14.87;;
37047;SDS011;23227;48.780;9.210;2022-12-10T21:43:22;35.53;;;13.50;;
37047;SDS011;23227;48.780;9.210;2022-12-10T21:46:27;33.90;;;12.10;;
37047;SDS011;23227;48.780;9.210;2022-12-10T21:49:30;27.48;;;11.77;;
37047;SDS011;23227;48.780;9.210;2022-12-10T21:52:35;29.50;;;12.48;;
37047;SDS011;23227;48.780;9.210;2022-12-10T21:55:37;24.50;;;10.77;;
37047;SDS011;23227;48.780;9.210;2022-12-10T21:58:43;27.73;;;11.60;;
37047;SDS011;23227;48.780;9.210;2022-12-10T22:01:46;30.40;;;11.60;;
37047;SDS011;23227;48.780;9.210;2022-12-10T22:04:49;27.80;;;11.97;;
37047;SDS011;23227;48.780;9.210;2022-12-10T22:07:53;24.77;;;11.53;;
37047;SDS011;23227;48.780;9.210;2022-12-10T22:10:55;25.47;;;11.30;;
37047;SDS011;23227;48.780;9.210;2022-12-10T22:13:58;25.50;;;11.60;;
37047;SDS011;23227;48.780;9.210;2022-12-10T22:17:01;23.30;;;10.90;;
37047;SDS011;23227;48.780;9.210;2022-12-10T22:20:05;28.13;;;11.95;;
37047;SDS011;23227;48.780;9.210;2022-12-10T22:23:11;26.98;;;12.38;;
37047;SDS011;23227;48.780;9.210;2022-12-10T22:26:15;28.60;;;12.90;;
37047;SDS011;23227;48.780;9.210;2022-12-10T22:29:18;23.37;;;11.20;;
37047;SDS011;23227;48.780;9.210;2022-12-10T22:32:23;27.27;;;12.37;;
37047;SDS011;23227;48.780;9.210;2022-12-10T22:35:26;26.98;;;12.05;;
37047;SDS011;23227;48.780;9.210;2022-12-10T22:38:30;23.27;;;10.07;;
37047;SDS011;23227;48.780;9.210;2022-12-10T22:41:33;23.33;;;10.90;;
37047;SDS011;23227;48.780;9.210;2022-12-10T22:44:37;25.15;;;11.00;;
37047;SDS011;23227;48.780;9.210;2022-12-10T22:47:40;25.13;;;11.02;;
37047;SDS011;23227;48.780;9.210;2022-12-10T22:50:43;24.98;;;10.05;;
37047;SDS011;23227;48.780;9.210;2022-12-10T22:53:48;23.98;;;11.02;;
37047;SDS011;23227;48.780;9.210;2022-12-10T22:56:51;25.43;;;11.10;;
37047;SDS011;23227;48.780;9.210;2022-12-10T22:59:54;23.15;;;10.65;;
37047;SDS011;23227;48.780;9.210;2022-12-10T23:02:57;22.33;;;9.87;;
37047;SDS011;23227;48.780;9.210;2022-12-10T23:06:01;26.13;;;11.17;;
37047;SDS011;23227;48.780;9.210;2022-12-10T23:09:05;20.42;;;9.65;;
37047;SDS011;23227;48.780;9.210;2022-12-10T23:15:28;24.17;;;10.03;;
37047;SDS011;23227;48.780;9.210;2022-12-10T23:18:31;26.30;;;11.53;;
37047;SDS011;23227;48.780;9.210;2022-12-10T23:21:34;34.45;;;12.65;;
37047;SDS011;23227;48.780;9.210;2022-12-10T23:24:38;25.48;;;9.60;;
37047;SDS011;23227;48.780;9.210;2022-12-10T23:27:41;24.43;;;11.50;;
37047;SDS011;23227;48.780;9.210;2022-12-10T23:30:44;31.65;;;13.68;;
37047;SDS011;23227;48.780;9.210;2022-12-10T23:33:47;30.75;;;14.00;;
37047;SDS011;23227;48.780;9.210;2022-12-10T23:36:51;32.55;;;13.02;;
37047;SDS011;23227;48.780;9.210;2022-12-10T23:39:55;24.80;;;10.50;;
37047;SDS011;23227;48.780;9.210;2022-12-10T23:42:58;24.37;;;11.73;;
37047;SDS011;23227;48.780;9.210;2022-12-10T23:46:01;30.63;;;13.57;;
37047;SDS011;23227;48.780;9.210;2022-12-10T23:49:04;26.95;;;10.95;;
37047;SDS011;23227;48.780;9.210;2022-12-10T23:52:07;31.87;;;11.93;;
37047;SDS011;23227;48.780;9.210;2022-12-10T23:55:11;32.20;;;11.15;;
37047;SDS011;23227;48.780;9.210;2022-12-10T23:58:14;34.80;;;13.53;;
